createdAt,value
2023-01-25T00:02:12.899Z,17.33
2023-01-25T00:04:39.514Z,17.77
2023-01-25T00:07:06.169Z,17.30
2023-01-25T00:09:32.869Z,15.23
2023-01-25T00:11:59.494Z,15.60
2023-01-25T00:14:26.068Z,13.55
2023-01-25T00:16:53.355Z,15.98
2023-01-25T00:19:20.196Z,13.30
2023-01-25T00:21:46.831Z,13.20
2023-01-25T00:24:14.495Z,15.95
2023-01-25T00:26:43.997Z,15.25
2023-01-25T00:29:14.405Z,17.10
2023-01-25T00:31:56.124Z,18.38
2023-01-25T00:34:25.683Z,17.58
2023-01-25T00:37:05.150Z,16.52
2023-01-25T00:39:31.807Z,16.65
2023-01-25T00:41:58.380Z,16.63
2023-01-25T00:44:24.987Z,15.45
2023-01-25T00:46:51.565Z,15.13
2023-01-25T00:49:23.744Z,16.80
2023-01-25T00:51:51.100Z,16.33
2023-01-25T00:54:17.988Z,16.88
2023-01-25T00:56:45.056Z,14.90
2023-01-25T00:59:12.408Z,16.17
2023-01-25T01:01:40.708Z,18.60
2023-01-25T01:04:07.395Z,19.95
2023-01-25T01:06:38.762Z,19.25
2023-01-25T01:09:07.195Z,15.48
2023-01-25T01:14:00.309Z,16.33
2023-01-25T01:16:27.193Z,13.95
2023-01-25T01:18:54.336Z,18.30
2023-01-25T01:21:21.416Z,17.23
2023-01-25T01:23:48.080Z,18.10
2023-01-25T01:26:16.151Z,19.30
2023-01-25T01:28:43.155Z,19.77
2023-01-25T01:31:18.107Z,18.63
2023-01-25T01:33:44.853Z,18.33
2023-01-25T01:36:13.622Z,18.75
2023-01-25T01:38:41.092Z,19.52
2023-01-25T01:41:08.404Z,18.13
2023-01-25T01:43:35.601Z,18.10
2023-01-25T01:46:05.395Z,17.83
2023-01-25T01:48:35.028Z,15.65
2023-01-25T01:51:22.035Z,18.50
2023-01-25T01:53:53.246Z,16.67
2023-01-25T01:56:26.549Z,17.85
2023-01-25T01:58:54.105Z,19.08
2023-01-25T02:01:21.329Z,19.33
2023-01-25T02:03:48.753Z,19.67
2023-01-25T02:06:26.686Z,16.88
2023-01-25T02:08:53.961Z,21.27
2023-01-25T02:11:21.356Z,21.50
2023-01-25T02:13:49.202Z,17.52
2023-01-25T02:16:17.707Z,19.30
2023-01-25T02:21:11.216Z,16.17
2023-01-25T02:23:47.440Z,15.93
2023-01-25T02:26:14.880Z,18.40
2023-01-25T02:29:06.505Z,21.42
2023-01-25T02:31:33.574Z,20.95
2023-01-25T02:34:00.519Z,20.00
2023-01-25T02:36:29.902Z,20.48
2023-01-25T02:39:11.939Z,20.92
2023-01-25T02:41:43.244Z,22.52
2023-01-25T02:44:14.477Z,23.13
2023-01-25T02:46:42.241Z,21.75
2023-01-25T02:49:10.006Z,22.98
2023-01-25T02:51:39.497Z,25.38
2023-01-25T02:54:07.653Z,21.35
2023-01-25T02:56:34.305Z,19.50
2023-01-25T02:59:05.524Z,20.48
2023-01-25T03:01:37.098Z,18.98
2023-01-25T03:04:05.439Z,18.73
2023-01-25T03:06:32.745Z,20.77
2023-01-25T03:08:59.681Z,21.42
2023-01-25T03:11:26.285Z,21.05
2023-01-25T03:13:53.130Z,22.33
2023-01-25T03:16:19.779Z,22.85
2023-01-25T03:18:46.575Z,22.98
2023-01-25T03:21:16.245Z,22.63
2023-01-25T03:23:43.756Z,23.33
2023-01-25T03:26:12.908Z,25.63
2023-01-25T03:28:41.041Z,24.65
2023-01-25T03:31:09.142Z,23.10
2023-01-25T03:33:35.977Z,22.27
2023-01-25T03:36:03.117Z,27.65
2023-01-25T03:38:29.848Z,29.27
2023-01-25T03:40:56.432Z,26.55
2023-01-25T03:43:23.141Z,28.88
2023-01-25T03:46:00.418Z,26.63
2023-01-25T03:48:28.077Z,29.73
2023-01-25T03:50:57.397Z,26.00
2023-01-25T03:53:31.407Z,22.23
2023-01-25T03:56:09.401Z,25.35
2023-01-25T03:58:39.639Z,22.88
2023-01-25T04:01:07.724Z,22.00
2023-01-25T04:03:34.715Z,23.92
2023-01-25T04:06:01.457Z,21.13
2023-01-25T04:08:28.217Z,27.38
2023-01-25T04:10:56.893Z,27.98
2023-01-25T04:13:24.835Z,29.67
2023-01-25T04:15:51.677Z,26.48
2023-01-25T04:18:18.695Z,26.48
2023-01-25T04:20:45.545Z,27.70
2023-01-25T04:23:12.573Z,24.85
2023-01-25T04:25:39.323Z,23.60
2023-01-25T04:28:06.011Z,27.42
2023-01-25T04:30:32.602Z,29.25
2023-01-25T04:33:05.840Z,24.92
2023-01-25T04:35:32.521Z,24.58
2023-01-25T04:38:00.008Z,24.85
2023-01-25T04:40:27.193Z,25.73
2023-01-25T04:42:53.878Z,22.85
2023-01-25T04:45:20.449Z,23.70
2023-01-25T04:47:46.992Z,22.52
2023-01-25T04:50:13.559Z,26.42
2023-01-25T04:52:40.206Z,28.00
2023-01-25T04:55:07.459Z,28.98
2023-01-25T04:57:34.258Z,27.87
2023-01-25T05:00:00.950Z,26.92
2023-01-25T05:02:27.709Z,28.38
2023-01-25T05:04:54.287Z,29.08
2023-01-25T05:07:20.916Z,28.77
2023-01-25T05:09:47.482Z,26.63
2023-01-25T05:12:14.061Z,28.77
2023-01-25T05:14:40.670Z,28.50
2023-01-25T05:17:07.701Z,31.38
2023-01-25T05:19:34.612Z,30.30
2023-01-25T05:22:03.027Z,26.23
2023-01-25T05:27:00.550Z,25.40
2023-01-25T05:29:27.945Z,25.80
2023-01-25T05:31:55.162Z,26.58
2023-01-25T05:34:21.913Z,28.67
2023-01-25T05:36:48.582Z,26.10
2023-01-25T05:39:15.213Z,27.45
2023-01-25T05:41:41.766Z,27.95
2023-01-25T05:44:08.313Z,26.52
2023-01-25T05:46:34.932Z,23.63
2023-01-25T05:49:01.563Z,29.02
2023-01-25T05:51:28.117Z,30.00
2023-01-25T05:53:56.061Z,33.30
2023-01-25T05:56:22.830Z,31.30
2023-01-25T05:58:53.963Z,35.90
2023-01-25T06:01:20.893Z,37.35
2023-01-25T06:03:47.990Z,39.00
2023-01-25T06:06:14.717Z,45.42
2023-01-25T06:08:41.322Z,44.70
2023-01-25T06:11:12.577Z,39.00
2023-01-25T06:13:39.164Z,40.03
2023-01-25T06:16:06.227Z,35.55
2023-01-25T06:18:33.780Z,34.75
2023-01-25T06:21:01.121Z,33.47
2023-01-25T06:23:27.839Z,29.17
2023-01-25T06:26:00.564Z,33.20
2023-01-25T06:28:30.206Z,35.65
2023-01-25T06:30:56.833Z,37.75
2023-01-25T06:33:23.451Z,41.42
2023-01-25T06:35:50.062Z,47.42
2023-01-25T06:38:16.623Z,38.83
2023-01-25T06:40:43.205Z,38.00
2023-01-25T06:43:11.140Z,33.42
2023-01-25T06:45:38.233Z,42.38
2023-01-25T06:48:05.179Z,28.65
2023-01-25T06:50:31.775Z,32.72
2023-01-25T06:52:58.486Z,33.97
2023-01-25T06:55:25.095Z,31.70
2023-01-25T06:57:51.704Z,38.88
2023-01-25T07:00:18.711Z,43.30
2023-01-25T07:02:45.316Z,37.33
2023-01-25T07:05:12.098Z,30.75
2023-01-25T07:07:38.756Z,34.97
2023-01-25T07:10:05.678Z,42.72
2023-01-25T07:12:32.388Z,36.53
2023-01-25T07:14:59.010Z,51.70
2023-01-25T07:17:25.578Z,36.65
2023-01-25T07:19:52.145Z,36.33
2023-01-25T07:22:18.735Z,36.38
2023-01-25T07:24:49.984Z,43.50
2023-01-25T07:27:17.243Z,40.95
2023-01-25T07:29:43.811Z,35.50
2023-01-25T07:32:13.880Z,36.78
2023-01-25T07:34:40.664Z,43.45
2023-01-25T07:37:07.334Z,53.33
2023-01-25T07:39:33.941Z,48.63
2023-01-25T07:42:00.576Z,49.95
2023-01-25T07:44:27.183Z,52.40
2023-01-25T07:46:55.278Z,44.83
2023-01-25T07:49:21.870Z,42.97
2023-01-25T07:51:48.439Z,41.42
2023-01-25T07:54:15.052Z,44.78
2023-01-25T07:56:41.714Z,51.25
2023-01-25T07:59:09.970Z,57.10
2023-01-25T08:01:37.113Z,48.15
2023-01-25T08:04:04.867Z,46.78
2023-01-25T08:06:38.358Z,51.92
2023-01-25T08:09:14.348Z,46.47
2023-01-25T08:11:41.960Z,77.18
2023-01-25T08:14:09.148Z,51.28
2023-01-25T08:16:35.756Z,62.40
2023-01-25T08:19:03.461Z,75.90
2023-01-25T08:21:32.641Z,68.93
2023-01-25T08:24:00.471Z,74.72
2023-01-25T08:26:27.529Z,49.30
2023-01-25T08:28:54.505Z,74.00
2023-01-25T08:31:23.452Z,48.35
2023-01-25T08:33:50.431Z,58.17
2023-01-25T08:36:18.604Z,48.67
2023-01-25T08:38:46.613Z,48.75
2023-01-25T08:41:16.212Z,50.20
2023-01-25T08:43:43.898Z,48.53
2023-01-25T08:46:11.156Z,51.90
2023-01-25T08:48:37.898Z,49.38
2023-01-25T08:51:05.260Z,50.13
2023-01-25T08:53:32.790Z,61.88
2023-01-25T08:56:07.003Z,42.80
2023-01-25T08:58:33.850Z,55.97
2023-01-25T09:01:08.952Z,57.13
2023-01-25T09:03:37.183Z,43.10
2023-01-25T09:06:04.007Z,41.92
2023-01-25T09:08:30.547Z,53.05
2023-01-25T09:11:04.630Z,42.00
2023-01-25T09:13:31.406Z,51.85
2023-01-25T09:16:06.985Z,39.17
2023-01-25T09:18:35.480Z,42.80
2023-01-25T09:21:09.571Z,35.08
2023-01-25T09:23:50.299Z,40.92
2023-01-25T09:26:23.315Z,40.22
2023-01-25T09:28:51.821Z,40.97
2023-01-25T09:31:22.553Z,39.65
2023-01-25T09:33:51.576Z,41.35
2023-01-25T09:36:18.611Z,37.63
2023-01-25T09:38:45.952Z,41.50
2023-01-25T09:41:21.500Z,34.72
2023-01-25T09:44:14.951Z,38.67
2023-01-25T09:46:53.509Z,34.45
2023-01-25T09:49:20.011Z,37.78
2023-01-25T09:52:08.061Z,57.33
2023-01-25T09:54:46.643Z,49.10
2023-01-25T09:57:25.270Z,70.70
2023-01-25T09:59:53.039Z,46.50
2023-01-25T10:02:34.848Z,49.28
2023-01-25T10:05:08.933Z,38.90
2023-01-25T10:07:45.353Z,49.33
2023-01-25T10:10:14.852Z,42.70
2023-01-25T10:12:41.473Z,45.17
2023-01-25T10:15:22.947Z,46.08
2023-01-25T10:18:14.579Z,57.60
2023-01-25T10:20:46.991Z,45.78
2023-01-25T10:23:22.797Z,46.15
2023-01-25T10:26:08.213Z,42.80
2023-01-25T10:28:41.662Z,51.45
2023-01-25T10:31:26.310Z,48.15
2023-01-25T10:33:53.268Z,52.22
2023-01-25T10:36:25.625Z,49.90
2023-01-25T10:38:59.231Z,59.05
2023-01-25T10:41:44.641Z,46.05
2023-01-25T10:44:29.130Z,51.60
2023-01-25T10:47:00.654Z,54.28
2023-01-25T10:49:47.563Z,56.92
2023-01-25T10:52:17.128Z,67.70
2023-01-25T10:54:43.918Z,49.42
2023-01-25T10:57:16.226Z,66.20
2023-01-25T10:59:49.360Z,81.85
2023-01-25T11:02:40.808Z,52.70
2023-01-25T11:05:32.269Z,48.38
2023-01-25T11:08:00.206Z,45.35
2023-01-25T11:10:37.266Z,56.00
2023-01-25T11:13:16.362Z,47.13
2023-01-25T11:15:47.005Z,50.58
2023-01-25T11:18:19.521Z,52.97
2023-01-25T11:20:46.258Z,60.35
2023-01-25T11:23:27.690Z,54.58
2023-01-25T11:25:54.281Z,58.38
2023-01-25T11:28:25.825Z,77.68
2023-01-25T11:30:53.441Z,56.35
2023-01-25T11:33:21.692Z,57.92
2023-01-25T11:36:12.970Z,51.72
2023-01-25T11:39:05.597Z,49.30
2023-01-25T11:41:42.858Z,49.47
2023-01-25T11:44:39.036Z,51.30
2023-01-25T11:47:05.641Z,50.30
2023-01-25T11:50:07.616Z,45.25
2023-01-25T11:52:50.048Z,47.67
2023-01-25T11:55:29.364Z,47.33
2023-01-25T11:58:22.857Z,47.45
2023-01-25T12:01:01.791Z,44.03
2023-01-25T12:03:50.192Z,47.05
2023-01-25T12:06:54.655Z,37.45
2023-01-25T12:09:27.698Z,42.67
2023-01-25T12:12:13.127Z,38.08
2023-01-25T12:14:51.908Z,38.92
2023-01-25T12:17:33.767Z,47.78
2023-01-25T12:20:10.469Z,43.83
2023-01-25T12:22:43.548Z,55.10
2023-01-25T12:25:21.851Z,62.47
2023-01-25T12:30:27.218Z,37.97
2023-01-25T12:33:13.979Z,48.30
2023-01-25T12:36:07.432Z,53.92
2023-01-25T12:38:42.047Z,47.78
2023-01-25T12:41:43.400Z,46.85
2023-01-25T12:44:19.340Z,52.63
2023-01-25T12:46:53.094Z,50.47
2023-01-25T12:49:54.399Z,46.38
2023-01-25T12:52:20.998Z,47.63
2023-01-25T12:54:48.524Z,38.45
2023-01-25T12:57:40.529Z,36.50
2023-01-25T13:00:23.643Z,39.90
2023-01-25T13:03:16.445Z,40.38
2023-01-25T13:06:09.966Z,36.08
2023-01-25T13:08:58.501Z,43.40
2023-01-25T13:11:37.731Z,44.45
2023-01-25T13:14:31.913Z,42.78
2023-01-25T13:17:12.343Z,45.50
2023-01-25T13:19:43.999Z,54.90
2023-01-25T13:22:12.215Z,34.70
2023-01-25T13:25:01.809Z,43.92
2023-01-25T13:27:30.273Z,36.78
2023-01-25T13:29:59.029Z,36.47
2023-01-25T13:32:25.668Z,35.17
2023-01-25T13:34:52.212Z,34.20
2023-01-25T13:37:31.100Z,43.22
2023-01-25T13:40:06.317Z,37.75
2023-01-25T13:42:34.814Z,39.42
2023-01-25T13:45:13.377Z,43.30
2023-01-25T13:47:42.326Z,38.60
2023-01-25T13:50:41.230Z,44.80
2023-01-25T13:53:16.961Z,38.78
2023-01-25T13:55:54.564Z,41.85
2023-01-25T13:58:25.858Z,36.55
2023-01-25T14:00:57.980Z,32.80
2023-01-25T14:03:34.903Z,35.75
2023-01-25T14:06:04.550Z,36.67
2023-01-25T14:08:31.910Z,32.53
2023-01-25T14:10:58.768Z,40.88
2023-01-25T14:13:25.471Z,34.88
2023-01-25T14:16:00.007Z,37.67
2023-01-25T14:18:38.571Z,37.42
2023-01-25T14:21:13.100Z,37.60
2023-01-25T14:23:40.040Z,37.20
2023-01-25T14:26:26.857Z,40.10
2023-01-25T14:29:01.772Z,34.88
2023-01-25T14:31:33.278Z,41.35
2023-01-25T14:34:00.085Z,38.10
2023-01-25T14:36:29.279Z,43.08
2023-01-25T14:38:56.649Z,39.88
2023-01-25T14:41:32.987Z,37.75
2023-01-25T14:44:05.611Z,43.35
2023-01-25T14:46:36.576Z,49.20
2023-01-25T14:49:07.275Z,45.30
2023-01-25T14:51:36.199Z,43.00
2023-01-25T14:54:06.076Z,100.30
2023-01-25T14:56:40.202Z,49.53
2023-01-25T14:59:07.261Z,50.10
2023-01-25T15:01:38.978Z,49.80
2023-01-25T15:04:11.257Z,54.85
2023-01-25T15:06:46.568Z,46.63
2023-01-25T15:10:01.166Z,47.28
2023-01-25T15:12:29.925Z,53.53
2023-01-25T15:14:58.335Z,50.85
2023-01-25T15:17:41.838Z,60.67
2023-01-25T15:20:28.026Z,55.00
2023-01-25T15:22:56.140Z,59.15
2023-01-25T15:25:24.262Z,65.50
2023-01-25T15:27:51.572Z,61.28
2023-01-25T15:30:18.962Z,64.55
2023-01-25T15:32:46.326Z,61.30
2023-01-25T15:35:22.191Z,73.18
2023-01-25T15:37:49.486Z,72.75
2023-01-25T15:40:17.130Z,79.23
2023-01-25T15:42:43.981Z,81.57
2023-01-25T15:45:10.990Z,72.97
2023-01-25T15:47:38.548Z,72.28
2023-01-25T15:50:06.099Z,77.70
2023-01-25T15:52:32.724Z,83.45
2023-01-25T15:55:01.995Z,92.25
2023-01-25T15:57:34.705Z,80.07
2023-01-25T16:00:02.341Z,83.22
2023-01-25T16:02:29.204Z,79.13
2023-01-25T16:04:55.805Z,84.38
2023-01-25T16:07:25.460Z,80.22
2023-01-25T16:09:52.047Z,76.47
2023-01-25T16:12:19.178Z,81.95
2023-01-25T16:14:45.917Z,76.47
2023-01-25T16:17:24.368Z,81.15
2023-01-25T16:19:50.979Z,79.28
2023-01-25T16:22:18.467Z,82.35
2023-01-25T16:24:45.373Z,75.78
2023-01-25T16:27:25.736Z,85.65
2023-01-25T16:29:55.557Z,88.80
2023-01-25T16:32:22.120Z,80.90
2023-01-25T16:34:48.666Z,79.38
2023-01-25T16:37:16.300Z,89.95
2023-01-25T16:39:43.050Z,84.30
2023-01-25T16:42:10.093Z,92.95
2023-01-25T16:44:37.011Z,80.32
2023-01-25T16:47:04.791Z,92.32
2023-01-25T16:49:32.099Z,90.40
2023-01-25T16:51:58.825Z,88.43
2023-01-25T16:54:26.369Z,91.65
2023-01-25T16:56:54.105Z,84.28
2023-01-25T16:59:22.105Z,84.15
2023-01-25T17:01:48.753Z,87.55
2023-01-25T17:04:15.482Z,97.97
2023-01-25T17:06:44.297Z,91.95
2023-01-25T17:09:23.459Z,83.22
2023-01-25T17:11:51.061Z,85.28
2023-01-25T17:14:19.112Z,86.28
2023-01-25T17:16:48.255Z,81.63
2023-01-25T17:19:17.117Z,82.03
2023-01-25T17:21:44.419Z,79.18
2023-01-25T17:24:13.770Z,80.22
2023-01-25T17:26:40.902Z,93.75
2023-01-25T17:29:07.521Z,88.85
2023-01-25T17:31:34.768Z,86.95
2023-01-25T17:34:02.928Z,102.03
2023-01-25T17:36:29.772Z,92.55
2023-01-25T17:38:56.446Z,100.65
2023-01-25T17:41:23.078Z,96.03
2023-01-25T17:43:53.118Z,102.65
2023-01-25T17:46:26.162Z,96.22
2023-01-25T17:48:53.533Z,92.05
2023-01-25T17:51:21.216Z,101.30
2023-01-25T17:53:48.995Z,93.72
2023-01-25T17:56:15.642Z,86.25
2023-01-25T17:58:42.529Z,85.60
2023-01-25T18:01:17.136Z,88.18
2023-01-25T18:03:44.660Z,88.03
2023-01-25T18:06:13.947Z,82.70
2023-01-25T18:08:41.997Z,91.90
2023-01-25T18:11:10.180Z,84.75
2023-01-25T18:13:43.157Z,88.57
2023-01-25T18:16:10.223Z,87.70
2023-01-25T18:18:38.406Z,79.78
2023-01-25T18:21:10.679Z,90.65
2023-01-25T18:23:37.989Z,91.80
2023-01-25T18:26:11.600Z,76.65
2023-01-25T18:28:38.537Z,91.57
2023-01-25T18:31:06.303Z,81.35
2023-01-25T18:33:33.336Z,82.07
2023-01-25T18:36:02.771Z,84.03
2023-01-25T18:38:30.523Z,79.28
2023-01-25T18:40:57.521Z,90.93
2023-01-25T18:43:24.381Z,86.00
2023-01-25T18:45:59.587Z,92.90
2023-01-25T18:48:33.530Z,83.75
2023-01-25T18:51:05.312Z,80.82
2023-01-25T18:53:34.195Z,82.97
2023-01-25T18:56:07.284Z,84.70
2023-01-25T18:58:35.754Z,85.70
2023-01-25T19:01:14.180Z,81.72
2023-01-25T19:03:41.668Z,83.97
2023-01-25T19:06:08.804Z,89.30
2023-01-25T19:08:40.649Z,92.00
2023-01-25T19:11:11.458Z,86.20
2023-01-25T19:13:39.311Z,95.68
2023-01-25T19:16:09.180Z,91.03
2023-01-25T19:18:37.546Z,99.95
2023-01-25T19:23:35.845Z,98.22
2023-01-25T19:26:02.529Z,96.32
2023-01-25T19:28:29.278Z,97.88
2023-01-25T19:30:56.239Z,90.43
2023-01-25T19:33:23.028Z,103.07
2023-01-25T19:35:49.644Z,104.35
2023-01-25T19:38:16.221Z,108.45
2023-01-25T19:40:42.872Z,101.40
2023-01-25T19:43:09.476Z,103.90
2023-01-25T19:45:36.038Z,106.05
2023-01-25T19:48:05.459Z,88.68
2023-01-25T19:50:32.048Z,104.57
2023-01-25T19:52:58.696Z,103.32
2023-01-25T19:55:25.309Z,101.05
2023-01-25T19:57:51.892Z,105.55
2023-01-25T20:00:19.694Z,107.93
2023-01-25T20:02:46.629Z,99.18
2023-01-25T20:05:13.270Z,103.28
2023-01-25T20:07:42.291Z,95.35
2023-01-25T20:10:09.886Z,99.80
2023-01-25T20:12:36.485Z,103.70
2023-01-25T20:15:03.263Z,91.57
2023-01-25T20:17:29.817Z,109.15
2023-01-25T20:19:56.387Z,100.90
2023-01-25T20:22:22.983Z,104.30
2023-01-25T20:24:49.529Z,104.38
2023-01-25T20:27:16.142Z,112.88
2023-01-25T20:29:42.697Z,94.07
2023-01-25T20:32:09.841Z,101.72
2023-01-25T20:34:39.647Z,95.60
2023-01-25T20:37:06.267Z,105.55
2023-01-25T20:39:32.837Z,104.78
2023-01-25T20:42:00.109Z,106.97
2023-01-25T20:44:28.645Z,98.95
2023-01-25T20:46:56.454Z,110.03
2023-01-25T20:49:23.148Z,99.97
2023-01-25T20:51:49.722Z,105.18
2023-01-25T20:54:18.167Z,110.72
2023-01-25T20:56:47.906Z,103.65
2023-01-25T20:59:16.457Z,118.20
2023-01-25T21:01:43.147Z,118.13
2023-01-25T21:04:11.477Z,112.40
2023-01-25T21:09:05.874Z,110.10
2023-01-25T21:11:32.793Z,113.53
2023-01-25T21:13:59.706Z,105.53
2023-01-25T21:16:26.370Z,119.32
2023-01-25T21:18:55.032Z,119.65
2023-01-25T21:21:24.003Z,106.55
2023-01-25T21:23:50.974Z,115.90
2023-01-25T21:26:20.194Z,121.95
2023-01-25T21:28:47.552Z,115.63
2023-01-25T21:31:18.088Z,118.43
2023-01-25T21:33:45.023Z,126.65
2023-01-25T21:36:15.721Z,113.50
2023-01-25T21:38:44.061Z,128.93
2023-01-25T21:43:56.547Z,120.75
2023-01-25T21:46:27.450Z,123.30
2023-01-25T21:49:14.226Z,112.50
2023-01-25T21:51:49.818Z,99.88
2023-01-25T21:54:26.513Z,121.18
2023-01-25T21:56:55.489Z,118.15
2023-01-25T21:59:22.366Z,115.63
2023-01-25T22:01:49.592Z,122.20
2023-01-25T22:04:17.876Z,123.90
2023-01-25T22:09:22.721Z,106.73
2023-01-25T22:11:50.813Z,111.60
2023-01-25T22:14:23.308Z,101.75
2023-01-25T22:16:50.947Z,112.53
2023-01-25T22:19:17.986Z,109.80
2023-01-25T22:21:44.933Z,108.82
2023-01-25T22:24:12.038Z,105.47
2023-01-25T22:27:16.357Z,112.97
2023-01-25T22:29:42.909Z,114.07
2023-01-25T22:32:09.489Z,118.10
2023-01-25T22:34:36.203Z,108.38
2023-01-25T22:37:02.785Z,118.53
2023-01-25T22:39:29.405Z,122.35
2023-01-25T22:41:56.606Z,110.38
2023-01-25T22:44:23.227Z,111.10
2023-01-25T22:46:50.658Z,105.05
2023-01-25T22:49:17.341Z,127.35
2023-01-25T22:51:43.946Z,115.70
2023-01-25T22:54:10.526Z,120.32
2023-01-25T22:56:37.089Z,109.03
2023-01-25T22:59:03.716Z,115.18
2023-01-25T23:01:32.377Z,111.95
2023-01-25T23:03:59.586Z,125.70
2023-01-25T23:06:31.041Z,114.55
2023-01-25T23:09:03.350Z,106.57
2023-01-25T23:11:32.417Z,113.22
2023-01-25T23:14:18.134Z,112.15
2023-01-25T23:16:44.707Z,133.38
2023-01-25T23:19:11.314Z,120.72
2023-01-25T23:21:38.022Z,115.60
2023-01-25T23:24:05.018Z,108.30
2023-01-25T23:26:37.584Z,123.95
2023-01-25T23:29:07.028Z,121.70
2023-01-25T23:31:33.850Z,121.65
2023-01-25T23:34:02.386Z,117.85
2023-01-25T23:36:31.818Z,127.20
2023-01-25T23:38:59.400Z,126.95
2023-01-25T23:41:28.196Z,143.45
2023-01-25T23:43:56.016Z,136.20
2023-01-25T23:46:23.657Z,142.15
2023-01-25T23:48:50.911Z,117.28
2023-01-25T23:51:17.866Z,121.90
2023-01-25T23:53:44.799Z,120.50
2023-01-25T23:56:17.752Z,114.05
2023-01-25T23:58:44.888Z,138.55
